createdAt,value
2023-05-15T00:00:52.194Z,98773.00
2023-05-15T00:03:24.777Z,98766.22
2023-05-15T00:05:57.121Z,98771.13
2023-05-15T00:08:29.252Z,98767.00
2023-05-15T00:11:02.149Z,98763.50
2023-05-15T00:13:34.188Z,98758.59
2023-05-15T00:16:10.537Z,98751.47
2023-05-15T00:18:42.401Z,98751.47
2023-05-15T00:21:14.337Z,98753.50
2023-05-15T00:23:47.684Z,98748.00
2023-05-15T00:26:19.826Z,98741.72
2023-05-15T00:28:51.820Z,98737.41
2023-05-15T00:31:23.670Z,98740.25
2023-05-15T00:33:57.540Z,98732.53
2023-05-15T00:36:29.419Z,98736.97
2023-05-15T00:39:01.645Z,98734.13
2023-05-15T00:41:35.606Z,98734.78
2023-05-15T00:44:09.525Z,98724.56
2023-05-15T00:46:43.076Z,98729.47
2023-05-15T00:49:16.354Z,98720.25
2023-05-15T00:51:48.335Z,98712.31
2023-05-15T00:54:20.430Z,98712.09
2023-05-15T00:56:55.990Z,98711.50
2023-05-15T00:59:32.738Z,98708.44
2023-05-15T01:02:04.594Z,98700.91
2023-05-15T01:04:36.436Z,98714.50
2023-05-15T01:07:08.236Z,98700.44
2023-05-15T01:09:43.848Z,98699.25
2023-05-15T01:12:18.534Z,98702.50
2023-05-15T01:14:50.633Z,98708.25
2023-05-15T01:17:22.426Z,98709.47
2023-05-15T01:19:56.946Z,98702.34
2023-05-15T01:22:31.525Z,98698.69
2023-05-15T01:25:28.613Z,98694.00
2023-05-15T01:28:06.332Z,98704.50
2023-05-15T01:30:42.901Z,98700.16
2023-05-15T01:33:36.373Z,98695.88
2023-05-15T01:36:43.757Z,98692.63
2023-05-15T01:39:23.203Z,98699.69
2023-05-15T01:42:02.677Z,98693.34
2023-05-15T01:44:38.512Z,98687.38
2023-05-15T01:47:16.528Z,98684.28
2023-05-15T01:49:51.151Z,98681.81
2023-05-15T01:52:26.764Z,98678.75
2023-05-15T01:54:58.661Z,98682.38
2023-05-15T01:57:31.820Z,98680.94
2023-05-15T02:00:04.322Z,98676.88
2023-05-15T02:02:46.842Z,98677.03
2023-05-15T02:05:19.360Z,98670.34
2023-05-15T02:07:53.510Z,98665.06
2023-05-15T02:10:27.920Z,98666.09
2023-05-15T02:13:01.171Z,98665.06
2023-05-15T02:15:33.352Z,98663.88
2023-05-15T02:18:05.538Z,98656.13
2023-05-15T02:20:37.401Z,98652.66
2023-05-15T02:23:09.272Z,98655.13
2023-05-15T02:26:10.675Z,98655.94
2023-05-15T02:28:59.025Z,98642.53
2023-05-15T02:31:42.711Z,98649.25
2023-05-15T02:34:23.742Z,98647.03
2023-05-15T02:36:58.047Z,98642.94
2023-05-15T02:39:31.561Z,98637.41
2023-05-15T02:42:05.368Z,98633.72
2023-05-15T02:44:37.681Z,98626.97
2023-05-15T02:47:11.254Z,98626.97
2023-05-15T02:49:44.694Z,98624.97
2023-05-15T02:52:17.974Z,98622.31
2023-05-15T02:54:49.769Z,98624.53
2023-05-15T02:57:21.454Z,98609.69
2023-05-15T02:59:54.942Z,98620.63
2023-05-15T03:02:26.836Z,98617.16
2023-05-15T03:04:58.754Z,98608.81
2023-05-15T03:07:30.476Z,98608.81
2023-05-15T03:10:02.462Z,98611.28
2023-05-15T03:12:34.778Z,98608.38
2023-05-15T03:15:07.387Z,98610.41
2023-05-15T03:17:39.224Z,98602.28
2023-05-15T03:20:14.122Z,98601.25
2023-05-15T03:22:45.945Z,98594.53
2023-05-15T03:25:17.975Z,98596.34
2023-05-15T03:27:49.811Z,98600.94
2023-05-15T03:30:21.575Z,98592.22
2023-05-15T03:32:53.492Z,98592.03
2023-05-15T03:35:26.525Z,98589.59
2023-05-15T03:37:58.749Z,98584.91
2023-05-15T03:40:30.613Z,98575.78
2023-05-15T03:43:02.617Z,98575.38
2023-05-15T03:45:37.710Z,98571.09
2023-05-15T03:48:09.467Z,98571.50
2023-05-15T03:50:41.472Z,98568.66
2023-05-15T03:53:15.649Z,98564.00
2023-05-15T03:55:47.729Z,98562.63
2023-05-15T03:58:19.515Z,98566.06
2023-05-15T04:00:51.277Z,98559.16
2023-05-15T04:03:23.085Z,98564.63
2023-05-15T04:05:55.083Z,98561.16
2023-05-15T04:08:26.997Z,98569.09
2023-05-15T04:10:58.782Z,98560.78
2023-05-15T04:13:30.559Z,98561.78
2023-05-15T04:16:04.037Z,98560.38
2023-05-15T04:18:35.833Z,98561.84
2023-05-15T04:21:07.731Z,98556.81
2023-05-15T04:23:41.673Z,98552.13
2023-05-15T04:26:13.464Z,98550.94
2023-05-15T04:28:56.144Z,98549.50
2023-05-15T04:31:35.240Z,98553.16
2023-05-15T04:34:07.123Z,98551.53
2023-05-15T04:36:40.570Z,98555.00
2023-05-15T04:39:13.108Z,98553.97
2023-05-15T04:41:44.901Z,98552.97
2023-05-15T04:44:16.668Z,98549.06
2023-05-15T04:46:48.476Z,98550.72
2023-05-15T04:49:20.264Z,98545.97
2023-05-15T04:51:52.134Z,98543.94
2023-05-15T04:54:24.005Z,98553.69
2023-05-15T04:56:55.879Z,98540.88
2023-05-15T04:59:28.785Z,98543.13
2023-05-15T05:02:03.128Z,98545.19
2023-05-15T05:04:35.059Z,98541.09
2023-05-15T05:07:09.848Z,98542.56
2023-05-15T05:09:41.809Z,98530.94
2023-05-15T05:12:14.678Z,98537.69
2023-05-15T05:14:46.782Z,98535.22
2023-05-15T05:17:18.990Z,98536.47
2023-05-15T05:19:50.856Z,98534.06
2023-05-15T05:22:22.960Z,98531.97
2023-05-15T05:24:54.724Z,98530.56
2023-05-15T05:27:27.001Z,98527.91
2023-05-15T05:29:58.740Z,98530.75
2023-05-15T05:32:30.699Z,98531.38
2023-05-15T05:35:03.985Z,98538.69
2023-05-15T05:37:36.702Z,98528.28
2023-05-15T05:40:13.027Z,98525.66
2023-05-15T05:42:44.885Z,98530.13
2023-05-15T05:45:16.950Z,98528.50
2023-05-15T05:47:49.062Z,98530.94
2023-05-15T05:50:21.025Z,98530.13
2023-05-15T05:52:52.923Z,98526.88
2023-05-15T05:55:24.902Z,98526.69
2023-05-15T05:57:57.408Z,98520.34
2023-05-15T06:00:29.451Z,98517.34
2023-05-15T06:03:02.099Z,98518.53
2023-05-15T06:05:35.056Z,98516.88
2023-05-15T06:08:07.037Z,98513.25
2023-05-15T06:10:38.914Z,98515.69
2023-05-15T06:13:10.663Z,98517.75
2023-05-15T06:15:42.654Z,98512.28
2023-05-15T06:18:15.247Z,98516.97
2023-05-15T06:20:47.101Z,98517.84
2023-05-15T06:23:19.428Z,98515.59
2023-05-15T06:25:51.442Z,98514.00
2023-05-15T06:28:23.244Z,98521.72
2023-05-15T06:30:57.913Z,98512.78
2023-05-15T06:33:29.889Z,98517.06
2023-05-15T06:36:02.320Z,98518.94
2023-05-15T06:38:34.124Z,98513.63
2023-05-15T06:41:07.356Z,98507.75
2023-05-15T06:43:39.367Z,98513.63
2023-05-15T06:46:11.296Z,98517.91
2023-05-15T06:48:43.095Z,98508.16
2023-05-15T06:51:18.576Z,98510.81
2023-05-15T06:53:50.471Z,98503.06
2023-05-15T06:56:22.839Z,98505.94
2023-05-15T06:58:54.616Z,98512.25
2023-05-15T07:01:26.411Z,98508.19
2023-05-15T07:03:58.377Z,98502.09
2023-05-15T07:06:32.301Z,98495.56
2023-05-15T07:09:04.660Z,98501.06
2023-05-15T07:11:39.825Z,98501.13
2023-05-15T07:14:11.717Z,98505.84
2023-05-15T07:16:43.534Z,98501.53
2023-05-15T07:19:19.422Z,98496.69
2023-05-15T07:21:51.185Z,98499.34
2023-05-15T07:24:22.954Z,98499.34
2023-05-15T07:26:58.891Z,98492.63
2023-05-15T07:29:31.131Z,98486.47
2023-05-15T07:32:03.356Z,98492.25
2023-05-15T07:34:35.302Z,98492.50
2023-05-15T07:37:07.039Z,98495.09
2023-05-15T07:39:38.995Z,98494.25
2023-05-15T07:42:10.917Z,98501.91
2023-05-15T07:44:45.004Z,98496.66
2023-05-15T07:47:17.898Z,98494.88
2023-05-15T07:49:49.857Z,98496.22
2023-05-15T07:52:21.780Z,98494.81
2023-05-15T07:54:54.019Z,98498.00
2023-05-15T07:57:26.514Z,98498.09
2023-05-15T07:59:58.552Z,98497.59
2023-05-15T08:02:30.542Z,98495.06
2023-05-15T08:05:03.266Z,98499.22
2023-05-15T08:07:35.260Z,98497.53
2023-05-15T08:10:07.954Z,98497.56
2023-05-15T08:12:46.234Z,98501.16
2023-05-15T08:15:18.223Z,98495.84
2023-05-15T08:17:50.156Z,98497.97
2023-05-15T08:20:22.052Z,98496.72
2023-05-15T08:22:55.083Z,98490.63
2023-05-15T08:25:27.448Z,98494.47
2023-05-15T08:27:59.330Z,98499.78
2023-05-15T08:30:31.131Z,98499.44
2023-05-15T08:33:03.105Z,98497.41
2023-05-15T08:35:35.020Z,98499.88
2023-05-15T08:38:07.957Z,98503.38
2023-05-15T08:40:41.952Z,98498.63
2023-05-15T08:43:18.118Z,98503.69
2023-05-15T08:45:50.270Z,98502.13
2023-05-15T08:48:26.914Z,98507.31
2023-05-15T08:51:02.963Z,98512.09
2023-05-15T08:53:34.837Z,98509.06
2023-05-15T08:56:08.229Z,98516.34
2023-05-15T08:58:40.374Z,98515.22
2023-05-15T09:01:14.269Z,98516.75
2023-05-15T09:03:47.225Z,98511.91
2023-05-15T09:06:19.570Z,98522.25
2023-05-15T09:08:55.490Z,98519.84
2023-05-15T09:11:28.847Z,98524.03
2023-05-15T09:14:00.992Z,98521.84
2023-05-15T09:16:33.037Z,98517.53
2023-05-15T09:19:09.251Z,98522.69
2023-05-15T09:21:41.396Z,98522.28
2023-05-15T09:24:23.877Z,98523.06
2023-05-15T09:27:06.658Z,98527.06
2023-05-15T09:29:39.957Z,98525.66
2023-05-15T09:32:14.448Z,98534.91
2023-05-15T09:34:46.564Z,98535.66
2023-05-15T09:37:32.548Z,98536.72
2023-05-15T09:40:11.794Z,98540.22
2023-05-15T09:42:51.881Z,98539.81
2023-05-15T09:45:31.121Z,98540.84
2023-05-15T09:48:07.696Z,98543.06
2023-05-15T09:50:44.411Z,98543.41
2023-05-15T09:53:21.405Z,98544.56
2023-05-15T09:55:54.302Z,98550.81
2023-05-15T09:58:29.609Z,98549.41
2023-05-15T10:01:03.103Z,98544.47
2023-05-15T10:03:35.166Z,98549.59
2023-05-15T10:06:07.352Z,98550.41
2023-05-15T10:08:40.851Z,98551.38
2023-05-15T10:11:12.757Z,98539.16
2023-05-15T10:13:44.751Z,98536.88
2023-05-15T10:16:22.761Z,98536.66
2023-05-15T10:18:57.751Z,98536.63
2023-05-15T10:21:40.041Z,98543.44
2023-05-15T10:24:16.610Z,98541.81
2023-05-15T10:26:49.615Z,98553.50
2023-05-15T10:29:25.701Z,98542.19
2023-05-15T10:32:00.068Z,98543.41
2023-05-15T10:34:34.755Z,98537.69
2023-05-15T10:37:07.596Z,98540.28
2023-05-15T10:39:41.132Z,98528.59
2023-05-15T10:42:13.429Z,98527.06
2023-05-15T10:44:45.435Z,98538.47
2023-05-15T10:47:17.433Z,98527.09
2023-05-15T10:49:49.511Z,98530.88
2023-05-15T10:52:21.869Z,98520.31
2023-05-15T10:54:54.652Z,98518.00
2023-05-15T10:57:29.164Z,98522.31
2023-05-15T11:00:02.209Z,98517.28
2023-05-15T11:02:39.273Z,98509.09
2023-05-15T11:05:12.288Z,98512.75
2023-05-15T11:07:44.077Z,98507.28
2023-05-15T11:10:28.222Z,98500.72
2023-05-15T11:13:02.605Z,98504.63
2023-05-15T11:15:44.801Z,98508.94
2023-05-15T11:18:16.837Z,98497.56
2023-05-15T11:20:54.452Z,98493.56
2023-05-15T11:23:26.419Z,98495.47
2023-05-15T11:25:58.596Z,98492.56
2023-05-15T11:28:31.504Z,98494.41
2023-05-15T11:31:06.988Z,98498.81
2023-05-15T11:33:40.730Z,98491.25
2023-05-15T11:36:15.932Z,98485.66
2023-05-15T11:38:50.975Z,98489.84
2023-05-15T11:41:27.899Z,98494.41
2023-05-15T11:43:59.885Z,98490.56
2023-05-15T11:46:33.239Z,98490.91
2023-05-15T11:49:08.229Z,98484.66
2023-05-15T11:51:43.301Z,98488.50
2023-05-15T11:54:15.475Z,98492.78
2023-05-15T11:56:47.289Z,98484.38
2023-05-15T11:59:21.491Z,98483.47
2023-05-15T12:01:53.552Z,98480.81
2023-05-15T12:04:25.584Z,98474.00
2023-05-15T12:06:57.610Z,98471.81
2023-05-15T12:09:29.490Z,98467.22
2023-05-15T12:12:03.724Z,98468.91
2023-05-15T12:14:35.719Z,98449.19
2023-05-15T12:17:07.741Z,98459.19
2023-05-15T12:19:39.727Z,98450.53
2023-05-15T12:22:11.516Z,98438.03
2023-05-15T12:24:43.266Z,98439.91
2023-05-15T12:27:16.730Z,98431.31
2023-05-15T12:29:48.697Z,98415.75
2023-05-15T12:32:21.677Z,98420.00
2023-05-15T12:34:53.927Z,98419.41
2023-05-15T12:37:28.831Z,98421.59
2023-05-15T12:40:02.595Z,98423.13
2023-05-15T12:42:42.725Z,98425.47
2023-05-15T12:45:18.874Z,98432.69
2023-05-15T12:47:51.302Z,98426.03
2023-05-15T12:50:23.433Z,98422.81
2023-05-15T12:52:57.993Z,98420.69
2023-05-15T12:55:35.996Z,98416.34
2023-05-15T12:58:10.639Z,98419.09
2023-05-15T13:00:47.051Z,98408.59
2023-05-15T13:03:22.092Z,98403.75
2023-05-15T13:05:54.062Z,98405.59
2023-05-15T13:08:25.950Z,98398.34
2023-05-15T13:10:59.908Z,98409.63
2023-05-15T13:13:46.311Z,98404.34
2023-05-15T13:16:26.327Z,98407.03
2023-05-15T13:18:58.979Z,98404.88
2023-05-15T13:21:33.202Z,98398.06
2023-05-15T13:24:05.371Z,98400.81
2023-05-15T13:26:37.449Z,98400.53
2023-05-15T13:29:09.256Z,98389.03
2023-05-15T13:31:43.365Z,98401.88
2023-05-15T13:34:15.388Z,98403.41
2023-05-15T13:36:47.346Z,98399.00
2023-05-15T13:39:19.575Z,98396.78
2023-05-15T13:41:51.403Z,98396.69
2023-05-15T13:44:23.198Z,98390.94
2023-05-15T13:46:57.189Z,98402.88
2023-05-15T13:49:29.051Z,98400.38
2023-05-15T13:52:00.849Z,98398.16
2023-05-15T13:54:33.043Z,98400.28
2023-05-15T13:57:05.268Z,98401.16
2023-05-15T13:59:37.294Z,98400.03
2023-05-15T14:02:09.088Z,98401.47
2023-05-15T14:04:40.984Z,98405.59
2023-05-15T14:07:12.723Z,98410.72
2023-05-15T14:09:44.545Z,98408.34
2023-05-15T14:12:16.430Z,98409.00
2023-05-15T14:14:48.546Z,98409.97
2023-05-15T14:17:23.323Z,98398.75
2023-05-15T14:19:55.201Z,98398.81
2023-05-15T14:22:27.350Z,98395.72
2023-05-15T14:24:59.213Z,98406.84
2023-05-15T14:27:31.518Z,98412.22
2023-05-15T14:30:03.559Z,98409.81
2023-05-15T14:32:35.676Z,98414.22
2023-05-15T14:35:08.206Z,98414.03
2023-05-15T14:37:39.954Z,98408.53
2023-05-15T14:40:12.140Z,98405.66
2023-05-15T14:42:43.992Z,98399.78
2023-05-15T14:45:15.806Z,98403.03
2023-05-15T14:47:47.802Z,98403.31
2023-05-15T14:50:19.748Z,98400.31
2023-05-15T14:52:51.908Z,98402.75
2023-05-15T14:55:23.697Z,98402.94
2023-05-15T14:57:55.651Z,98400.78
2023-05-15T15:00:27.818Z,98396.28
2023-05-15T15:03:01.817Z,98390.06
2023-05-15T15:05:33.952Z,98396.69
2023-05-15T15:08:07.916Z,98397.25
2023-05-15T15:10:41.058Z,98403.50
2023-05-15T15:13:14.161Z,98407.31
2023-05-15T15:15:46.761Z,98409.75
2023-05-15T15:18:18.569Z,98407.28
2023-05-15T15:20:50.462Z,98413.34
2023-05-15T15:23:24.186Z,98410.31
2023-05-15T15:25:56.172Z,98413.63
2023-05-15T15:28:33.541Z,98417.22
2023-05-15T15:31:05.526Z,98421.41
2023-05-15T15:33:37.506Z,98421.16
2023-05-15T15:36:09.357Z,98414.84
2023-05-15T15:38:43.779Z,98409.97
2023-05-15T15:41:15.581Z,98411.59
2023-05-15T15:43:47.345Z,98423.34
2023-05-15T15:46:19.380Z,98429.53
2023-05-15T15:48:51.295Z,98419.59
2023-05-15T15:51:23.081Z,98420.19
2023-05-15T15:53:54.899Z,98422.31
2023-05-15T15:56:26.661Z,98411.00
2023-05-15T15:58:59.462Z,98414.00
2023-05-15T16:01:31.349Z,98414.03
2023-05-15T16:04:03.223Z,98411.66
2023-05-15T16:06:35.423Z,98409.75
2023-05-15T16:09:07.228Z,98412.69
2023-05-15T16:11:39.102Z,98410.22
2023-05-15T16:14:11.098Z,98407.66
2023-05-15T16:16:42.924Z,98414.91
2023-05-15T16:19:14.871Z,98415.16
2023-05-15T16:21:47.878Z,98417.97
2023-05-15T16:24:19.774Z,98418.56
2023-05-15T16:26:51.701Z,98421.56
2023-05-15T16:29:26.255Z,98422.78
2023-05-15T16:31:58.506Z,98420.16
2023-05-15T16:34:31.630Z,98423.91
2023-05-15T16:37:03.630Z,98426.31
2023-05-15T16:39:38.914Z,98435.94
2023-05-15T16:42:10.685Z,98430.94
2023-05-15T16:44:42.473Z,98427.09
2023-05-15T16:47:14.272Z,98435.44
2023-05-15T16:49:48.331Z,98435.25
2023-05-15T16:52:22.295Z,98428.31
2023-05-15T16:54:54.099Z,98418.97
2023-05-15T16:57:26.215Z,98427.78
2023-05-15T16:59:57.963Z,98436.47
2023-05-15T17:02:29.954Z,98436.13
2023-05-15T17:05:01.898Z,98433.34
2023-05-15T17:07:34.335Z,98429.63
2023-05-15T17:10:10.606Z,98435.22
2023-05-15T17:12:42.465Z,98436.78
2023-05-15T17:15:14.350Z,98439.47
2023-05-15T17:17:46.531Z,98436.78
2023-05-15T17:20:18.468Z,98442.38
2023-05-15T17:22:50.321Z,98445.47
2023-05-15T17:25:22.227Z,98452.84
2023-05-15T17:27:53.954Z,98449.88
2023-05-15T17:30:25.959Z,98450.91
2023-05-15T17:32:59.534Z,98443.69
2023-05-15T17:35:32.942Z,98449.56
2023-05-15T17:38:05.194Z,98456.06
2023-05-15T17:40:40.769Z,98457.78
2023-05-15T17:43:12.545Z,98462.22
2023-05-15T17:45:44.322Z,98468.66
2023-05-15T17:48:16.186Z,98457.53
2023-05-15T17:50:48.188Z,98465.47
2023-05-15T17:53:20.137Z,98472.69
2023-05-15T17:55:52.098Z,98475.59
2023-05-15T17:58:24.133Z,98483.97
2023-05-15T18:00:56.286Z,98485.94
2023-05-15T18:03:28.319Z,98487.28
2023-05-15T18:06:00.393Z,98488.84
2023-05-15T18:08:32.346Z,98492.47
2023-05-15T18:11:11.133Z,98493.09
2023-05-15T18:13:49.909Z,98500.78
2023-05-15T18:16:21.808Z,98500.81
2023-05-15T18:18:53.882Z,98504.91
2023-05-15T18:21:25.910Z,98509.91
2023-05-15T18:24:00.251Z,98526.50
2023-05-15T18:26:32.253Z,98525.22
2023-05-15T18:29:05.499Z,98530.66
2023-05-15T18:31:37.468Z,98535.78
2023-05-15T18:34:09.372Z,98541.72
2023-05-15T18:36:41.166Z,98544.94
2023-05-15T18:39:13.257Z,98548.41
2023-05-15T18:41:45.045Z,98549.78
2023-05-15T18:44:18.016Z,98553.59
2023-05-15T18:46:51.572Z,98556.47
2023-05-15T18:49:24.816Z,98554.72
2023-05-15T18:51:58.018Z,98556.81
2023-05-15T18:54:29.876Z,98566.44
2023-05-15T18:57:01.748Z,98569.13
2023-05-15T18:59:34.044Z,98564.81
2023-05-15T19:02:06.184Z,98567.25
2023-05-15T19:04:37.992Z,98569.94
2023-05-15T19:07:09.723Z,98571.19
2023-05-15T19:09:44.436Z,98571.66
2023-05-15T19:12:16.346Z,98572.91
2023-05-15T19:14:48.286Z,98578.09
2023-05-15T19:17:20.592Z,98588.38
2023-05-15T19:19:52.564Z,98589.72
2023-05-15T19:22:24.390Z,98590.63
2023-05-15T19:24:56.293Z,98595.00
2023-05-15T19:27:28.193Z,98598.34
2023-05-15T19:30:03.192Z,98593.31
2023-05-15T19:32:35.121Z,98593.78
2023-05-15T19:35:07.273Z,98595.91
2023-05-15T19:37:39.079Z,98597.00
2023-05-15T19:40:12.483Z,98597.09
2023-05-15T19:42:44.334Z,98600.81
2023-05-15T19:45:16.411Z,98593.03
2023-05-15T19:47:50.473Z,98592.63
2023-05-15T19:50:22.286Z,98601.31
2023-05-15T19:52:54.231Z,98602.78
2023-05-15T19:55:27.563Z,98597.88
2023-05-15T19:57:59.656Z,98600.84
2023-05-15T20:00:31.769Z,98603.13
2023-05-15T20:03:03.918Z,98602.53
2023-05-15T20:05:41.146Z,98609.72
2023-05-15T20:08:14.719Z,98602.00
2023-05-15T20:10:51.048Z,98615.13
2023-05-15T20:13:23.327Z,98610.88
2023-05-15T20:15:59.052Z,98613.19
2023-05-15T20:18:34.416Z,98606.06
2023-05-15T20:21:06.816Z,98614.91
2023-05-15T20:23:39.123Z,98611.06
2023-05-15T20:26:10.870Z,98617.25
2023-05-15T20:28:45.213Z,98618.94
2023-05-15T20:31:17.221Z,98613.66
2023-05-15T20:33:49.051Z,98619.00
2023-05-15T20:36:22.895Z,98613.34
2023-05-15T20:38:55.938Z,98614.22
2023-05-15T20:41:29.448Z,98624.44
2023-05-15T20:44:03.271Z,98624.69
2023-05-15T20:46:39.649Z,98627.38
2023-05-15T20:49:11.965Z,98629.63
2023-05-15T20:51:45.056Z,98627.19
2023-05-15T20:54:17.254Z,98630.09
2023-05-15T20:56:49.126Z,98635.41
2023-05-15T20:59:21.223Z,98631.13
2023-05-15T21:01:53.144Z,98629.47
2023-05-15T21:04:26.015Z,98627.25
2023-05-15T21:06:57.875Z,98625.25
2023-05-15T21:09:29.694Z,98632.59
2023-05-15T21:12:01.517Z,98633.63
2023-05-15T21:14:33.372Z,98625.72
2023-05-15T21:17:05.653Z,98622.88
2023-05-15T21:19:37.615Z,98622.28
2023-05-15T21:22:09.475Z,98630.00
2023-05-15T21:24:41.432Z,98637.41
2023-05-15T21:27:13.344Z,98633.53
2023-05-15T21:29:45.234Z,98632.91
2023-05-15T21:32:17.299Z,98627.63
2023-05-15T21:34:49.921Z,98632.31
2023-05-15T21:37:21.759Z,98635.97
2023-05-15T21:39:53.615Z,98641.91
2023-05-15T21:42:26.537Z,98640.72
2023-05-15T21:44:59.695Z,98632.13
2023-05-15T21:47:31.550Z,98635.22
2023-05-15T21:50:03.578Z,98629.47
2023-05-15T21:52:35.498Z,98631.94
2023-05-15T21:55:08.108Z,98638.28
2023-05-15T21:57:39.956Z,98634.00
2023-05-15T22:00:12.472Z,98639.53
2023-05-15T22:02:44.536Z,98640.16
2023-05-15T22:05:17.339Z,98647.09
2023-05-15T22:07:49.160Z,98652.78
2023-05-15T22:10:21.058Z,98660.75
2023-05-15T22:12:52.883Z,98654.03
2023-05-15T22:15:24.996Z,98657.91
2023-05-15T22:17:59.347Z,98658.28
2023-05-15T22:20:33.182Z,98661.56
2023-05-15T22:23:05.312Z,98665.66
2023-05-15T22:25:37.153Z,98673.59
2023-05-15T22:28:08.905Z,98678.09
2023-05-15T22:30:40.697Z,98683.41
2023-05-15T22:33:12.482Z,98686.06
2023-05-15T22:35:44.584Z,98686.66
2023-05-15T22:38:16.395Z,98685.44
2023-05-15T22:40:52.529Z,98678.50
2023-05-15T22:43:24.502Z,98696.84
2023-05-15T22:45:56.402Z,98695.81
2023-05-15T22:48:28.300Z,98700.34
2023-05-15T22:51:00.103Z,98700.91
2023-05-15T22:53:32.052Z,98692.91
2023-05-15T22:56:03.975Z,98702.91
2023-05-15T22:58:35.796Z,98712.50
2023-05-15T23:01:07.651Z,98709.63
2023-05-15T23:03:39.780Z,98712.50
2023-05-15T23:06:17.694Z,98715.97
2023-05-15T23:08:50.579Z,98717.59
2023-05-15T23:11:23.134Z,98714.53
2023-05-15T23:13:55.472Z,98717.38
2023-05-15T23:16:27.485Z,98716.97
2023-05-15T23:18:59.785Z,98725.13
2023-05-15T23:21:31.909Z,98720.81
2023-05-15T23:24:04.637Z,98716.75
2023-05-15T23:26:36.534Z,98725.53
2023-05-15T23:29:08.549Z,98724.28
2023-05-15T23:31:40.409Z,98723.88
2023-05-15T23:34:12.297Z,98727.53
2023-05-15T23:36:44.116Z,98727.94
2023-05-15T23:39:16.519Z,98728.13
2023-05-15T23:41:48.418Z,98727.91
2023-05-15T23:44:20.269Z,98716.69
2023-05-15T23:46:52.062Z,98718.31
2023-05-15T23:49:24.013Z,98723.00
2023-05-15T23:51:55.714Z,98723.19
2023-05-15T23:54:28.057Z,98715.63
2023-05-15T23:56:59.850Z,98722.91
2023-05-15T23:59:31.728Z,98732.09
